Time;durP1;ratioP1;P1;durP2;ratioP2;P2;SDS_P1;SDS_P2;PMS_P1;PMS_P2;Temp;Humidity;BMP_temperature;BMP_pressure;BME280_temperature;BME280_humidity;BME280_pressure;Samples;Min_cycle;Max_cycle;Signal;HPM_P1;HPM_P2
2022/10/09 00:01:04;;;;;;;3.13;2.77;;;;;;;8.71;100.00;101114.09;5071696;28;20213;-74
2022/10/09 00:03:30;;;;;;;4.17;3.30;;;;;;;8.71;100.00;101116.66;5077171;28;20192;-74
2022/10/09 00:05:56;;;;;;;3.33;3.03;;;;;;;8.66;100.00;101116.63;5070567;28;20193;-74
2022/10/09 00:08:21;;;;;;;4.27;2.97;;;;;;;8.59;100.00;101117.41;5072881;28;20213;-74
2022/10/09 00:10:47;;;;;;;3.57;3.13;;;;;;;8.57;100.00;101113.94;5072746;28;20525;-73
2022/10/09 00:13:13;;;;;;;5.50;3.20;;;;;;;8.54;100.00;101104.47;5075765;28;20639;-73
2022/10/09 00:15:39;;;;;;;3.20;2.93;;;;;;;8.52;100.00;101103.56;5068814;28;20196;-74
2022/10/09 00:18:06;;;;;;;3.70;3.17;;;;;;;8.48;100.00;101101.78;5075323;28;20211;-75
2022/10/09 00:20:35;;;;;;;4.60;3.00;;;;;;;8.45;100.00;101098.28;5071149;28;20205;-73
2022/10/09 00:23:01;;;;;;;3.43;3.13;;;;;;;8.41;100.00;101099.94;5071345;28;20194;-74
2022/10/09 00:25:26;;;;;;;3.70;3.40;;;;;;;8.35;100.00;101092.97;5071224;28;20190;-75
2022/10/09 00:27:51;;;;;;;3.43;3.10;;;;;;;8.31;100.00;101103.25;5075800;28;20485;-74
2022/10/09 00:30:19;;;;;;;3.40;3.10;;;;;;;8.28;100.00;101105.78;5072617;28;20220;-73
2022/10/09 00:32:45;;;;;;;3.67;3.37;;;;;;;8.21;100.00;101094.50;5076286;28;20208;-74
2022/10/09 00:35:10;;;;;;;3.33;3.03;;;;;;;8.17;100.00;101095.31;5070128;28;20913;-73
2022/10/09 00:37:35;;;;;;;3.33;3.03;;;;;;;8.13;100.00;101096.97;5070700;28;20198;-73
2022/10/09 00:40:00;;;;;;;3.80;3.40;;;;;;;8.09;100.00;101096.06;5075772;28;20211;-74
2022/10/09 00:42:26;;;;;;;4.27;3.20;;;;;;;8.07;100.00;101092.59;5078195;28;20797;-73
2022/10/09 00:44:56;;;;;;;4.23;3.67;;;;;;;8.07;100.00;101087.44;5081649;28;20194;-75
2022/10/09 00:47:24;;;;;;;7.33;3.83;;;;;;;8.12;100.00;101092.66;5071320;28;21301;-75
2022/10/09 00:49:53;;;;;;;6.37;3.80;;;;;;;8.18;100.00;101085.03;5070926;28;20212;-74
2022/10/09 00:52:20;;;;;;;4.20;3.80;;;;;;;8.24;100.00;101082.50;5074889;28;20193;-72
2022/10/09 00:54:45;;;;;;;5.43;4.47;;;;;;;8.30;100.00;101078.28;5075294;28;20208;-73
2022/10/09 00:57:11;;;;;;;5.83;4.60;;;;;;;8.32;100.00;101077.47;5077089;28;20181;-75
2022/10/09 00:59:37;;;;;;;5.43;4.90;;;;;;;8.37;100.00;101080.13;5073870;28;20247;-74
2022/10/09 01:02:02;;;;;;;5.60;4.90;;;;;;;8.39;100.00;101079.28;5075070;28;20224;-73
2022/10/09 01:04:27;;;;;;;5.93;5.30;;;;;;;8.41;100.00;101070.69;5080200;28;20188;-75
2022/10/09 01:07:15;;;;;;;6.50;5.50;;;;;;;8.40;100.00;101074.97;5078318;28;20193;-74
2022/10/09 01:10:03;;;;;;;6.70;6.00;;;;;;;8.38;100.00;101071.53;5074191;28;20219;-75
2022/10/09 01:12:40;;;;;;;6.93;5.93;;;;;;;8.37;100.00;101073.22;5077031;28;20185;-73
2022/10/09 01:15:19;;;;;;;8.20;5.43;;;;;;;8.36;100.00;101075.81;5080097;28;20186;-73
2022/10/09 01:18:10;;;;;;;6.70;6.10;;;;;;;8.35;100.00;101074.94;5074678;28;20196;-73
2022/10/09 01:21:04;;;;;;;6.70;6.00;;;;;;;8.33;100.00;101062.88;5071208;28;20211;-73
2022/10/09 01:23:48;;;;;;;7.87;5.67;;;;;;;8.31;100.00;101068.03;5074595;28;20194;-74
2022/10/09 01:26:37;;;;;;;6.37;5.77;;;;;;;8.29;100.00;101061.09;5069930;28;20224;-73
2022/10/09 01:29:09;;;;;;;6.50;5.87;;;;;;;8.24;100.00;101056.72;5071115;28;20225;-73
2022/10/09 01:31:38;;;;;;;6.23;5.63;;;;;;;8.20;100.00;101065.28;5070153;28;20193;-74
2022/10/09 01:34:06;;;;;;;6.03;5.53;;;;;;;8.16;100.00;101050.63;5083248;28;20272;-74
2022/10/09 01:36:31;;;;;;;7.70;5.93;;;;;;;8.10;100.00;101050.53;5069086;28;20230;-76
2022/10/09 01:39:00;;;;;;;6.90;5.47;;;;;;;8.08;100.00;101044.50;5068234;28;20208;-74
2022/10/09 01:41:26;;;;;;;5.77;5.17;;;;;;;8.06;100.00;101043.63;5068361;28;20187;-73
2022/10/09 01:43:51;;;;;;;6.43;5.83;;;;;;;8.06;100.00;101035.88;5073339;28;20189;-76
2022/10/09 01:46:30;;;;;;;7.07;5.53;;;;;;;8.07;100.00;101038.47;5066842;28;20285;-74
2022/10/09 01:49:10;;;;;;;6.37;5.80;;;;;;;8.05;100.00;101034.16;5073623;28;20224;-73
2022/10/09 01:52:20;;;;;;;6.30;5.70;;;;;;;8.03;100.00;101034.09;5078788;28;20231;-75
2022/10/09 01:55:30;;;;;;;8.53;6.13;;;;;;;8.04;100.00;101022.94;5067635;28;20231;-73
2022/10/09 01:58:08;;;;;;;7.10;6.30;;;;;;;8.03;100.00;101022.94;5069141;28;20195;-73
2022/10/09 02:00:43;;;;;;;8.73;6.50;;;;;;;8.01;100.00;101020.34;5074268;28;20214;-73
2022/10/09 02:03:12;;;;;;;8.50;5.90;;;;;;;8.01;100.00;101020.34;5068638;28;21021;-73
2022/10/09 02:05:39;;;;;;;6.50;5.70;;;;;;;7.96;100.00;101019.41;5073382;28;20559;-76
2022/10/09 02:08:05;;;;;;;6.47;5.87;;;;;;;7.98;100.00;101016.84;5074676;28;20555;-73
2022/10/09 02:10:34;;;;;;;6.93;6.17;;;;;;;7.99;100.00;101016.88;5068292;28;20193;-75
2022/10/09 02:13:00;;;;;;;5.90;5.20;;;;;;;8.01;100.00;101007.47;5069647;28;20222;-73
2022/10/09 02:15:56;;;;;;;7.47;6.10;;;;;;;8.00;100.00;101010.88;5075038;28;20278;-73
2022/10/09 02:18:44;;;;;;;7.30;5.63;;;;;;;8.06;100.00;101012.69;5069623;28;20256;-73
2022/10/09 02:21:42;;;;;;;7.10;5.63;;;;;;;8.06;100.00;101007.53;5071465;28;20210;-73
2022/10/09 02:24:11;;;;;;;6.60;5.53;;;;;;;8.05;100.00;101008.38;5073615;28;20736;-73
2022/10/09 02:26:37;;;;;;;6.90;6.20;;;;;;;8.07;100.00;101006.69;5071779;28;20554;-73
2022/10/09 02:29:03;;;;;;;6.97;5.60;;;;;;;8.05;100.00;101003.22;5088634;28;20204;-73
2022/10/09 02:31:32;;;;;;;7.77;6.00;;;;;;;8.05;100.00;101008.38;5074451;28;20295;-73
2022/10/09 02:34:00;;;;;;;7.33;6.00;;;;;;;8.03;100.00;101000.59;5078106;28;20244;-73
2022/10/09 02:36:27;;;;;;;7.43;6.13;;;;;;;8.01;100.00;101002.31;5077638;28;20230;-73
2022/10/09 02:38:54;;;;;;;8.43;6.30;;;;;;;8.00;100.00;100998.00;5084244;28;20215;-74
2022/10/09 02:41:20;;;;;;;8.77;6.60;;;;;;;7.98;100.00;100997.13;5076737;28;20181;-74
2022/10/09 02:43:45;;;;;;;7.33;6.63;;;;;;;7.94;100.00;100996.19;5076398;28;20181;-74
2022/10/09 02:46:13;;;;;;;8.50;7.37;;;;;;;7.92;100.00;100995.31;5075537;28;20187;-74
2022/10/09 02:48:39;;;;;;;8.70;7.20;;;;;;;7.86;100.00;100986.66;5071897;28;20205;-72
2022/10/09 02:51:04;;;;;;;7.97;7.17;;;;;;;7.82;100.00;100997.75;5079760;28;20182;-73
2022/10/09 02:53:30;;;;;;;7.30;6.60;;;;;;;7.80;100.00;100989.13;5073547;28;20176;-73
2022/10/09 02:55:55;;;;;;;8.40;6.83;;;;;;;7.81;100.00;100983.13;5079163;28;20195;-73
2022/10/09 02:58:21;;;;;;;8.43;7.20;;;;;;;7.79;100.00;100988.25;5077968;28;20204;-74
2022/10/09 03:00:51;;;;;;;8.40;7.60;;;;;;;7.76;100.00;100983.06;5078537;28;20218;-73
2022/10/09 03:03:17;;;;;;;8.60;7.30;;;;;;;7.75;100.00;100987.34;5087211;28;20326;-75
2022/10/09 03:05:42;;;;;;;10.57;7.47;;;;;;;7.72;100.00;100984.72;5085154;28;20198;-73
2022/10/09 03:08:08;;;;;;;8.97;7.63;;;;;;;7.75;100.00;100989.06;5073878;28;20649;-73
2022/10/09 03:10:36;;;;;;;12.50;7.83;;;;;;;7.73;100.00;100981.28;5075968;28;20564;-73
2022/10/09 03:13:01;;;;;;;10.97;7.93;;;;;;;7.70;100.00;100991.59;5077237;28;20286;-75
2022/10/09 03:15:26;;;;;;;10.10;7.60;;;;;;;7.71;100.00;100982.13;5084332;28;20705;-73
2022/10/09 03:17:52;;;;;;;8.73;7.13;;;;;;;7.69;100.00;100982.13;5083276;28;21104;-73
2022/10/09 03:20:17;;;;;;;8.30;7.23;;;;;;;7.73;100.00;100983.88;5086047;28;20706;-72
2022/10/09 03:22:42;;;;;;;8.80;6.43;;;;;;;7.69;100.00;100982.13;5087494;28;20190;-74
2022/10/09 03:25:08;;;;;;;9.93;7.80;;;;;;;7.70;100.00;100994.16;5081638;28;20321;-73
2022/10/09 03:27:33;;;;;;;8.07;7.30;;;;;;;7.70;100.00;100994.16;5079569;28;20191;-74
2022/10/09 03:29:58;;;;;;;9.77;8.30;;;;;;;7.68;100.00;100988.13;5074429;28;20417;-74
2022/10/09 03:32:24;;;;;;;9.13;8.30;;;;;;;7.67;100.00;100991.53;5080072;28;20188;-73
2022/10/09 03:34:50;;;;;;;10.73;8.63;;;;;;;7.66;100.00;100991.50;5067152;28;20179;-73
2022/10/09 03:37:15;;;;;;;9.60;8.63;;;;;;;7.65;100.00;100990.66;5069807;28;20676;-74
2022/10/09 03:39:41;;;;;;;11.50;8.57;;;;;;;7.58;100.00;100992.25;5079157;28;20565;-74
2022/10/09 03:42:06;;;;;;;12.70;8.90;;;;;;;7.56;100.00;100991.38;5078119;28;20222;-75
2022/10/09 03:44:31;;;;;;;13.60;9.37;;;;;;;7.53;100.00;100998.19;5071521;28;20184;-74
2022/10/09 03:46:59;;;;;;;10.20;8.83;;;;;;;7.53;100.00;100991.31;5073114;28;21652;-73
2022/10/09 03:49:24;;;;;;;10.47;9.37;;;;;;;7.50;100.00;100998.16;5071997;28;20754;-75
2022/10/09 03:51:50;;;;;;;10.87;9.53;;;;;;;7.46;100.00;100995.50;5071314;28;20213;-73
2022/10/09 03:54:15;;;;;;;9.87;8.97;;;;;;;7.44;100.00;100994.63;5076974;28;20204;-74
2022/10/09 03:56:40;;;;;;;10.37;8.97;;;;;;;7.41;100.00;100994.56;5078475;28;20195;-74
2022/10/09 03:59:08;;;;;;;10.63;9.53;;;;;;;7.37;100.00;100997.06;5079050;28;20255;-73
2022/10/09 04:01:33;;;;;;;10.30;8.80;;;;;;;7.36;100.00;100998.81;5075605;28;20244;-73
2022/10/09 04:03:59;;;;;;;11.50;10.23;;;;;;;7.33;100.00;100997.03;5072619;28;20186;-73
2022/10/09 04:06:24;;;;;;;12.10;9.73;;;;;;;7.32;100.00;101005.63;5077841;28;20238;-73
2022/10/09 04:08:49;;;;;;;11.13;10.03;;;;;;;7.31;100.00;101001.31;5071600;28;20289;-74
2022/10/09 04:11:14;;;;;;;10.23;9.23;;;;;;;7.28;100.00;101002.94;5076022;28;20192;-73
2022/10/09 04:13:40;;;;;;;11.47;9.70;;;;;;;7.29;100.00;101002.09;5078334;28;20188;-74
2022/10/09 04:16:08;;;;;;;11.77;10.57;;;;;;;7.29;100.00;101005.56;5077226;28;20195;-73
2022/10/09 04:18:33;;;;;;;10.57;9.57;;;;;;;7.23;100.00;100994.31;5070729;28;20297;-73
2022/10/09 04:20:58;;;;;;;10.73;9.73;;;;;;;7.21;100.00;100996.84;5071037;28;20959;-74
2022/10/09 04:23:25;;;;;;;12.07;10.03;;;;;;;7.18;100.00;100996.81;5072362;28;20187;-73
2022/10/09 04:25:55;;;;;;;10.83;9.73;;;;;;;7.16;100.00;100995.91;5071806;28;20235;-74
2022/10/09 04:28:22;;;;;;;10.67;9.63;;;;;;;7.15;100.00;100992.44;5072051;28;20259;-74
2022/10/09 04:30:47;;;;;;;10.77;9.67;;;;;;;7.11;100.00;100985.50;5072413;28;20276;-74
2022/10/09 04:33:12;;;;;;;11.60;10.40;;;;;;;7.14;100.00;100989.88;5069773;28;20682;-73
2022/10/09 04:35:45;;;;;;;11.23;10.17;;;;;;;7.10;100.00;100988.97;5071303;28;20673;-76
2022/10/09 04:38:10;;;;;;;12.10;10.33;;;;;;;7.09;100.00;100986.34;5074680;28;20220;-74
2022/10/09 04:40:36;;;;;;;12.50;11.13;;;;;;;7.08;100.00;100979.47;5081463;28;20231;-73
2022/10/09 04:43:01;;;;;;;11.93;10.67;;;;;;;7.08;100.00;100987.19;5073432;28;20206;-74
2022/10/09 04:45:27;;;;;;;12.63;10.73;;;;;;;7.09;100.00;100999.22;5075897;28;20234;-74
2022/10/09 04:47:52;;;;;;;11.07;9.97;;;;;;;7.04;100.00;100985.38;5072325;28;20197;-75
2022/10/09 04:50:17;;;;;;;11.90;10.63;;;;;;;7.04;100.00;100991.41;5073139;28;20219;-73
2022/10/09 04:52:43;;;;;;;11.27;10.00;;;;;;;7.05;100.00;100979.41;5073431;28;20603;-73
2022/10/09 04:55:08;;;;;;;10.63;9.53;;;;;;;6.99;100.00;100993.91;5069121;28;20622;-74
2022/10/09 04:57:34;;;;;;;12.47;10.57;;;;;;;6.97;100.00;100992.13;5071648;28;20194;-74
2022/10/09 04:59:59;;;;;;;11.30;10.10;;;;;;;7.00;100.00;100982.78;5070779;28;20687;-73
2022/10/09 05:02:24;;;;;;;11.17;10.10;;;;;;;7.00;100.00;100980.22;5075246;28;20215;-75
2022/10/09 05:04:49;;;;;;;10.60;9.57;;;;;;;7.00;100.00;100975.06;5073173;28;20273;-75
2022/10/09 05:07:15;;;;;;;11.90;10.70;;;;;;;6.98;100.00;100981.88;5075087;28;20260;-74
2022/10/09 05:09:40;;;;;;;11.17;10.00;;;;;;;6.98;100.00;100974.16;5068728;28;20624;-73
2022/10/09 05:12:08;;;;;;;10.97;9.90;;;;;;;6.95;100.00;100978.41;5069692;28;20272;-73
2022/10/09 05:14:33;;;;;;;11.00;9.80;;;;;;;6.98;100.00;100974.16;5073560;28;20187;-74
2022/10/09 05:17:03;;;;;;;9.77;8.87;;;;;;;6.99;100.00;100980.16;5074043;28;20190;-72
2022/10/09 05:19:29;;;;;;;10.00;9.00;;;;;;;6.98;100.00;100974.16;5072701;28;20207;-74
2022/10/09 05:21:54;;;;;;;10.53;9.50;;;;;;;6.99;100.00;100977.59;5072929;28;20217;-72
2022/10/09 05:24:19;;;;;;;9.73;8.73;;;;;;;6.97;100.00;100976.69;5074421;28;20195;-73
2022/10/09 05:26:45;;;;;;;10.00;9.00;;;;;;;6.95;100.00;100974.09;5073349;28;20188;-73
2022/10/09 05:29:10;;;;;;;10.47;9.13;;;;;;;6.95;100.00;100981.81;5075088;28;20218;-72
2022/10/09 05:31:36;;;;;;;10.60;9.47;;;;;;;6.98;100.00;100978.44;5076923;28;20187;-73
2022/10/09 05:34:02;;;;;;;10.70;9.60;;;;;;;6.97;100.00;100971.53;5079159;28;20228;-73
2022/10/09 05:36:28;;;;;;;10.30;9.20;;;;;;;6.92;100.00;100979.19;5079474;28;20200;-72
2022/10/09 05:38:55;;;;;;;11.43;9.40;;;;;;;6.89;100.00;100979.13;5074902;28;20241;-74
2022/10/09 05:41:20;;;;;;;10.30;9.40;;;;;;;6.85;100.00;100969.66;5072444;28;20216;-73
2022/10/09 05:43:47;;;;;;;11.40;10.20;;;;;;;6.84;100.00;100971.34;5071357;28;20639;-74
2022/10/09 05:46:19;;;;;;;10.57;9.47;;;;;;;6.86;100.00;100976.53;5068840;28;20207;-73
2022/10/09 05:48:49;;;;;;;10.70;9.70;;;;;;;6.86;100.00;100981.69;5068797;28;20331;-72
2022/10/09 05:51:20;;;;;;;10.40;9.00;;;;;;;6.86;100.00;100974.81;5069828;28;20546;-72
2022/10/09 05:53:46;;;;;;;11.80;10.23;;;;;;;6.90;100.00;100983.44;5073090;28;20233;-75
2022/10/09 05:56:14;;;;;;;12.77;10.20;;;;;;;6.91;100.00;100987.75;5071144;28;20193;-73
2022/10/09 05:58:41;;;;;;;10.23;9.23;;;;;;;6.94;100.00;100981.81;5068836;28;20268;-73
2022/10/09 06:01:07;;;;;;;11.23;10.23;;;;;;;6.97;100.00;100984.41;5069425;28;20199;-73
2022/10/09 06:03:34;;;;;;;12.13;10.93;;;;;;;6.99;100.00;100987.88;5069193;28;20596;-72
2022/10/09 06:06:02;;;;;;;11.03;9.93;;;;;;;7.04;100.00;100981.13;5071397;28;20534;-73
2022/10/09 06:08:27;;;;;;;11.40;10.27;;;;;;;7.04;100.00;100975.09;5078085;28;20769;-74
2022/10/09 06:10:52;;;;;;;10.57;9.57;;;;;;;7.08;100.00;100979.47;5074412;28;20179;-74
2022/10/09 06:13:17;;;;;;;12.07;10.43;;;;;;;7.09;100.00;100983.75;5079032;28;20217;-72
2022/10/09 06:15:53;;;;;;;10.73;9.63;;;;;;;7.13;100.00;100976.13;5075161;28;20607;-72
2022/10/09 06:18:19;;;;;;;11.77;10.37;;;;;;;7.17;100.00;100971.91;5083777;28;20182;-73
2022/10/09 06:20:59;;;;;;;10.97;9.87;;;;;;;7.24;100.00;100984.00;5079186;28;20609;-72
2022/10/09 06:23:25;;;;;;;11.70;10.47;;;;;;;7.32;100.00;100971.25;5083139;28;20681;-73
2022/10/09 06:25:59;;;;;;;11.83;10.60;;;;;;;7.36;100.00;100977.31;5080597;28;20179;-73
2022/10/09 06:28:26;;;;;;;13.00;10.17;;;;;;;7.43;100.00;100971.44;5076985;28;20208;-73
2022/10/09 06:30:51;;;;;;;11.67;9.93;;;;;;;7.47;100.00;100986.09;5078178;28;20203;-74
2022/10/09 06:33:17;;;;;;;10.83;9.83;;;;;;;7.50;100.00;100973.25;5080186;28;20648;-73
2022/10/09 06:35:42;;;;;;;10.67;9.60;;;;;;;7.55;100.00;100979.34;5073881;28;20278;-72
2022/10/09 06:38:07;;;;;;;10.03;9.13;;;;;;;7.61;100.00;100983.72;5073399;28;20207;-72
2022/10/09 06:40:35;;;;;;;7.80;7.00;;;;;;;7.71;100.00;100980.44;5078631;28;20236;-73
2022/10/09 06:43:01;;;;;;;7.30;5.90;;;;;;;7.80;100.00;100974.50;5077849;28;20195;-74
2022/10/09 06:45:26;;;;;;;6.40;5.43;;;;;;;7.90;100.00;100976.41;5074829;28;20192;-73
2022/10/09 06:47:51;;;;;;;5.47;4.97;;;;;;;8.00;100.00;100979.06;5075943;28;20190;-72
2022/10/09 06:50:17;;;;;;;6.47;5.07;;;;;;;8.12;100.00;100980.94;5079564;28;20198;-73
2022/10/09 06:52:42;;;;;;;5.50;4.60;;;;;;;8.26;100.00;100975.94;5081522;28;20184;-73
2022/10/09 06:55:08;;;;;;;5.83;3.97;;;;;;;8.42;100.00;100988.16;5073424;28;20194;-74
2022/10/09 06:57:33;;;;;;;7.83;4.10;;;;;;;8.57;100.00;100969.47;5077562;28;20237;-74
2022/10/09 06:59:58;;;;;;;10.80;4.50;;;;;;;8.72;100.00;100979.06;5080626;28;20208;-73
2022/10/09 07:02:23;;;;;;;4.43;3.30;;;;;;;8.87;100.00;100987.78;5077608;28;20707;-73
2022/10/09 07:04:49;;;;;;;4.10;3.50;;;;;;;8.99;100.00;100982.75;5075493;28;20686;-75
2022/10/09 07:07:14;;;;;;;4.00;3.60;;;;;;;9.10;100.00;100994.03;5074956;28;20263;-73
2022/10/09 07:09:39;;;;;;;6.10;3.87;;;;;;;9.20;100.00;100986.34;5077482;28;20615;-74
2022/10/09 07:12:05;;;;;;;5.83;3.83;;;;;;;9.29;100.00;100984.72;5077320;28;20177;-73
2022/10/09 07:14:30;;;;;;;6.67;3.23;;;;;;;9.38;100.00;100989.09;5081152;28;20213;-74
2022/10/09 07:16:55;;;;;;;4.40;3.40;;;;;;;9.48;100.00;100986.56;5082303;28;20603;-74
2022/10/09 07:19:21;;;;;;;4.57;3.50;;;;;;;9.54;100.00;100990.03;5079493;28;20216;-72
2022/10/09 07:21:48;;;;;;;4.33;3.70;;;;;;;9.64;100.00;100984.94;5073667;28;20181;-73
2022/10/09 07:24:14;;;;;;;4.63;3.30;;;;;;;9.70;100.00;100995.31;5079055;28;20178;-74
2022/10/09 07:26:45;;;;;;;10.97;4.13;;;;;;;9.76;100.00;100991.03;5078741;28;20182;-73
2022/10/09 07:29:12;;;;;;;5.60;3.77;;;;;;;9.82;100.00;100986.78;5079543;28;20568;-73
2022/10/09 07:31:38;;;;;;;5.23;3.97;;;;;;;9.85;100.00;100977.31;5081318;28;20169;-74
2022/10/09 07:34:05;;;;;;;6.23;4.03;;;;;;;9.93;100.00;100987.69;5088930;28;20782;-73
2022/10/09 07:36:30;;;;;;;5.73;4.33;;;;;;;9.98;100.00;100995.50;5070370;28;20232;-74
2022/10/09 07:38:57;;;;;;;6.20;4.40;;;;;;;10.04;100.00;100992.91;5070074;28;20221;-73
2022/10/09 07:41:25;;;;;;;7.33;4.60;;;;;;;10.13;100.00;101005.91;5081060;28;20200;-73
2022/10/09 07:43:50;;;;;;;5.57;4.17;;;;;;;10.21;100.00;100992.97;5079914;28;20197;-72
2022/10/09 07:46:18;;;;;;;5.93;4.30;;;;;;;10.30;100.00;100994.72;5071549;28;20255;-75
2022/10/09 07:48:44;;;;;;;7.47;4.83;;;;;;;10.39;100.00;100983.59;5077471;28;20292;-73
2022/10/09 07:51:18;;;;;;;6.47;4.80;;;;;;;10.39;100.00;100981.88;5077859;28;20709;-73
2022/10/09 07:53:44;;;;;;;4.80;4.30;;;;;;;10.40;100.00;100985.31;5078574;28;20937;-73
2022/10/09 07:56:15;;;;;;;7.57;4.77;;;;;;;10.48;100.00;100986.22;5079667;28;20652;-73
2022/10/09 07:58:41;;;;;;;7.40;4.60;;;;;;;10.56;100.00;100976.72;5080692;28;20199;-73
2022/10/09 08:01:07;;;;;;;5.73;4.67;;;;;;;10.61;100.00;100976.72;5081178;28;20230;-74
2022/10/09 08:03:34;;;;;;;6.47;4.47;;;;;;;10.73;100.00;100975.91;5079767;28;20197;-74
2022/10/09 08:05:59;;;;;;;5.50;4.53;;;;;;;10.82;100.00;100976.78;5080526;28;20204;-74
2022/10/09 08:08:24;;;;;;;4.73;3.97;;;;;;;10.94;100.00;100978.53;5074940;28;20224;-74
2022/10/09 08:10:50;;;;;;;5.90;4.80;;;;;;;11.01;100.00;100978.50;5082596;28;20200;-73
2022/10/09 08:13:15;;;;;;;6.60;4.10;;;;;;;11.09;100.00;100971.63;5079177;28;20190;-73
2022/10/09 08:15:42;;;;;;;5.23;4.23;;;;;;;11.16;100.00;100973.34;5074678;28;20178;-76
2022/10/09 08:18:11;;;;;;;4.53;4.10;;;;;;;11.23;100.00;100974.19;5084916;28;20667;-73
2022/10/09 08:20:37;;;;;;;7.80;4.23;;;;;;;11.37;100.00;100969.84;5078274;28;20562;-77
2022/10/09 08:23:02;;;;;;;5.33;4.10;;;;;;;11.39;100.00;100965.53;5081339;28;20189;-73
2022/10/09 08:25:28;;;;;;;6.93;4.10;;;;;;;11.44;100.00;100969.00;5075580;28;20178;-73
2022/10/09 08:27:54;;;;;;;9.07;4.40;;;;;;;11.58;100.00;100958.59;5068641;28;20543;-74
2022/10/09 08:30:19;;;;;;;5.20;4.10;;;;;;;11.78;100.00;100960.28;5077999;28;20194;-73
2022/10/09 08:32:45;;;;;;;4.33;3.60;;;;;;;11.89;100.00;100960.25;5078636;28;20542;-73
2022/10/09 08:35:11;;;;;;;4.33;3.93;;;;;;;11.95;100.00;100952.41;5076149;28;20664;-74
2022/10/09 08:37:36;;;;;;;4.97;3.77;;;;;;;12.04;100.00;100954.16;5074385;28;20877;-74
2022/10/09 08:40:03;;;;;;;5.03;3.70;;;;;;;12.13;100.00;100953.25;5088286;28;20209;-74
2022/10/09 08:42:39;;;;;;;5.40;3.80;;;;;;;12.17;100.00;100958.44;5079845;28;20201;-74
2022/10/09 08:45:14;;;;;;;8.03;3.80;;;;;;;12.22;100.00;100953.22;5074683;28;20218;-73
2022/10/09 08:47:46;;;;;;;4.57;3.70;;;;;;;12.21;100.00;100943.72;5071470;28;20744;-75
2022/10/09 08:50:18;;;;;;;4.97;3.97;;;;;;;12.28;100.00;100939.34;5074160;28;20199;-74
2022/10/09 08:53:02;;;;;;;4.53;3.10;;;;;;;12.24;100.00;100941.09;5072280;28;20213;-74
2022/10/09 08:55:34;;;;;;;4.43;2.50;;;;;;;12.37;100.00;100944.47;5073216;28;20191;-73
2022/10/09 08:58:03;;;;;;;6.20;3.50;;;;;;;12.50;100.00;100950.47;5066977;28;20182;-74
2022/10/09 09:00:43;;;;;;;5.30;3.07;;;;;;;12.66;100.00;100946.00;5080763;28;20248;-73
2022/10/09 09:03:38;;;;;;;6.73;3.10;;;;;;;12.73;100.00;100932.13;5072569;28;20284;-73
2022/10/09 09:06:13;;;;;;;3.43;2.90;;;;;;;12.74;100.00;100936.44;5073017;28;20192;-74
2022/10/09 09:08:47;;;;;;;4.93;3.10;;;;;;;12.87;100.00;100939.78;5068919;28;20260;-75
2022/10/09 09:11:24;;;;;;;5.03;3.07;;;;;;;12.95;100.00;100935.41;5071305;28;20660;-74
2022/10/09 09:13:59;;;;;;;3.43;2.70;;;;;;;13.14;100.00;100927.47;5073570;28;20957;-73
2022/10/09 09:16:38;;;;;;;4.97;3.40;;;;;;;13.08;100.00;100919.72;5073773;28;20271;-73
2022/10/09 09:19:31;;;;;;;4.40;2.83;;;;;;;13.26;100.00;100922.13;5072162;28;20248;-73
2022/10/09 09:21:57;;;;;;;3.90;3.00;;;;;;;13.32;100.00;100903.00;5088522;28;20247;-75
2022/10/09 09:24:51;;;;;;;6.53;2.83;;;;;;;13.32;100.00;100910.81;5102992;28;20233;-76
2022/10/09 09:27:32;;;;;;;5.40;2.83;;;;;;;13.31;99.29;100914.28;5078958;28;20189;-73
2022/10/09 09:30:25;;;;;;;5.33;3.10;;;;;;;13.40;100.00;100910.78;5076919;28;20253;-74
2022/10/09 09:32:56;;;;;;;7.07;3.27;;;;;;;13.50;99.17;100911.53;5088880;28;20188;-73
2022/10/09 09:35:26;;;;;;;2.87;2.57;;;;;;;13.59;98.78;100893.22;5079885;28;20186;-74
2022/10/09 09:37:52;;;;;;;5.77;3.20;;;;;;;13.67;97.83;100904.41;5079757;28;20234;-74
2022/10/09 09:40:19;;;;;;;4.40;2.93;;;;;;;13.79;97.47;100885.16;5072354;28;20301;-73
2022/10/09 09:42:47;;;;;;;5.13;2.87;;;;;;;13.84;96.05;100887.72;5079621;28;20284;-74
2022/10/09 09:45:20;;;;;;;4.57;2.90;;;;;;;13.92;95.64;100891.06;5079937;28;20186;-73
2022/10/09 09:47:58;;;;;;;3.00;2.30;;;;;;;13.94;96.29;100884.13;5072855;28;20191;-75
2022/10/09 09:50:38;;;;;;;5.23;3.00;;;;;;;14.09;95.84;100877.81;5072697;28;20672;-73
2022/10/09 09:53:24;;;;;;;3.80;2.83;;;;;;;14.29;95.43;100879.28;5068799;28;20188;-74
2022/10/09 09:55:52;;;;;;;4.30;2.40;;;;;;;14.38;93.90;100870.47;5071147;28;20606;-75
2022/10/09 09:58:19;;;;;;;5.20;2.87;;;;;;;14.41;93.36;100868.69;5068500;28;20192;-75
2022/10/09 10:00:57;;;;;;;2.63;2.17;;;;;;;14.42;91.43;100865.19;5064641;28;20206;-75
2022/10/09 10:03:23;;;;;;;4.90;2.23;;;;;;;14.52;92.18;100852.03;5068885;28;20194;-73
2022/10/09 10:05:49;;;;;;;4.33;2.30;;;;;;;14.60;91.90;100857.97;5066238;28;20923;-73
2022/10/09 10:08:21;;;;;;;6.23;2.90;;;;;;;14.59;93.61;100851.03;5070041;28;20185;-74
2022/10/09 10:10:49;;;;;;;5.13;2.97;;;;;;;14.61;92.19;100847.50;5067512;28;20177;-75
2022/10/09 10:13:17;;;;;;;4.70;2.40;;;;;;;14.62;90.99;100843.19;5077989;28;20193;-73
2022/10/09 10:15:54;;;;;;;6.30;2.77;;;;;;;14.76;92.02;100828.19;5082379;28;20193;-75
2022/10/09 10:18:23;;;;;;;5.80;2.80;;;;;;;14.74;92.38;100822.16;5076116;28;20219;-73
2022/10/09 10:20:52;;;;;;;6.00;2.70;;;;;;;14.88;91.61;100821.03;5072633;28;20283;-74
2022/10/09 10:23:24;;;;;;;2.80;2.20;;;;;;;14.92;87.88;100820.13;5074550;28;20185;-73
2022/10/09 10:25:53;;;;;;;4.93;2.60;;;;;;;15.00;88.03;100817.38;5078405;28;20192;-73
2022/10/09 10:28:26;;;;;;;6.13;2.33;;;;;;;15.13;86.82;100808.41;5073968;28;20587;-74
2022/10/09 10:30:54;;;;;;;4.40;2.50;;;;;;;15.13;86.70;100807.53;5069644;28;20322;-74
2022/10/09 10:33:25;;;;;;;3.53;2.30;;;;;;;15.17;85.97;100801.38;5069031;28;20182;-73
2022/10/09 10:35:52;;;;;;;4.57;2.47;;;;;;;15.18;85.58;100798.75;5076563;28;20182;-73
2022/10/09 10:38:37;;;;;;;3.03;2.10;;;;;;;15.28;86.03;100796.81;5074356;28;20239;-73
2022/10/09 10:41:27;;;;;;;3.73;2.30;;;;;;;15.43;85.28;100785.22;5072822;28;20213;-75
2022/10/09 10:44:20;;;;;;;3.80;2.17;;;;;;;15.60;84.99;100790.06;5085309;28;20185;-74
2022/10/09 10:46:58;;;;;;;3.43;2.33;;;;;;;15.67;84.92;100790.78;5072334;28;20182;-75
2022/10/09 10:49:25;;;;;;;3.30;2.10;;;;;;;15.67;84.31;100781.22;5075225;28;20208;-73
2022/10/09 10:52:05;;;;;;;4.00;2.20;;;;;;;15.85;84.63;100787.78;5069412;28;20185;-73
2022/10/09 10:54:50;;;;;;;5.23;2.20;;;;;;;15.97;84.05;100768.38;5071678;28;20237;-74
2022/10/09 10:57:32;;;;;;;3.63;2.20;;;;;;;16.00;84.41;100783.09;5076189;28;20665;-74
2022/10/09 11:00:05;;;;;;;3.07;1.87;;;;;;;16.06;85.00;100772.53;5081095;28;20201;-75
2022/10/09 11:02:42;;;;;;;3.60;2.07;;;;;;;16.02;85.56;100773.50;5076124;28;20228;-73
2022/10/09 11:05:17;;;;;;;4.00;2.07;;;;;;;16.06;83.97;100764.69;5076430;28;20181;-75
2022/10/09 11:08:07;;;;;;;2.93;2.30;;;;;;;16.11;84.22;100765.41;5075643;28;20272;-73
2022/10/09 11:10:55;;;;;;;3.03;2.13;;;;;;;16.17;82.31;100760.97;5056923;28;20193;-75
2022/10/09 11:13:31;;;;;;;3.30;1.90;;;;;;;16.26;83.13;100761.59;5075297;28;20739;-75
2022/10/09 11:16:27;;;;;;;3.40;2.10;;;;;;;16.37;81.68;100745.66;5077707;28;20612;-74
2022/10/09 11:19:11;;;;;;;3.27;1.70;;;;;;;16.52;82.69;100759.22;5076525;28;20227;-73
2022/10/09 11:21:44;;;;;;;2.00;1.70;;;;;;;16.42;79.80;100748.97;5079164;28;20207;-74
2022/10/09 11:24:46;;;;;;;4.00;1.70;;;;;;;16.63;79.62;100743.25;5076298;28;20348;-75
2022/10/09 11:27:38;;;;;;;2.50;1.70;;;;;;;16.74;79.15;100736.81;5077302;28;20597;-73
2022/10/09 11:30:12;;;;;;;3.20;1.77;;;;;;;16.64;77.68;100734.53;5077239;28;20233;-73
2022/10/09 11:33:01;;;;;;;2.73;1.60;;;;;;;16.78;78.51;100724.53;5079620;28;20186;-75
2022/10/09 11:35:41;;;;;;;3.57;1.70;;;;;;;16.82;78.03;100731.38;5089000;28;20257;-73